sensor_id;sensor_type;location;lat;lon;timestamp;P1;durP1;ratioP1;P2;durP2;ratioP2
67902;SDS011;54708;43.612;1.568;2023-02-03T00:00:52;41.70;;;20.70;;
67902;SDS011;54708;43.612;1.568;2023-02-03T00:03:18;31.38;;;16.48;;
67902;SDS011;54708;43.612;1.568;2023-02-03T00:05:43;27.00;;;16.33;;
67902;SDS011;54708;43.612;1.568;2023-02-03T00:08:09;31.80;;;18.25;;
67902;SDS011;54708;43.612;1.568;2023-02-03T00:10:35;33.25;;;18.10;;
67902;SDS011;54708;43.612;1.568;2023-02-03T00:13:01;31.50;;;18.13;;
67902;SDS011;54708;43.612;1.568;2023-02-03T00:15:26;28.83;;;18.08;;
67902;SDS011;54708;43.612;1.568;2023-02-03T00:17:52;34.97;;;17.67;;
67902;SDS011;54708;43.612;1.568;2023-02-03T00:20:18;32.50;;;17.17;;
67902;SDS011;54708;43.612;1.568;2023-02-03T00:22:43;36.55;;;19.42;;
67902;SDS011;54708;43.612;1.568;2023-02-03T00:25:09;33.33;;;17.60;;
67902;SDS011;54708;43.612;1.568;2023-02-03T00:27:34;27.15;;;16.35;;
67902;SDS011;54708;43.612;1.568;2023-02-03T00:30:00;57.40;;;30.85;;
67902;SDS011;54708;43.612;1.568;2023-02-03T00:32:25;38.33;;;19.33;;
67902;SDS011;54708;43.612;1.568;2023-02-03T00:34:51;33.97;;;16.98;;
67902;SDS011;54708;43.612;1.568;2023-02-03T00:37:16;28.13;;;18.00;;
67902;SDS011;54708;43.612;1.568;2023-02-03T00:39:41;26.65;;;14.50;;
67902;SDS011;54708;43.612;1.568;2023-02-03T00:42:07;34.80;;;17.50;;
67902;SDS011;54708;43.612;1.568;2023-02-03T00:44:32;29.20;;;16.20;;
67902;SDS011;54708;43.612;1.568;2023-02-03T00:46:58;32.05;;;16.40;;
67902;SDS011;54708;43.612;1.568;2023-02-03T00:49:23;30.42;;;20.08;;
67902;SDS011;54708;43.612;1.568;2023-02-03T00:51:49;35.97;;;19.42;;
67902;SDS011;54708;43.612;1.568;2023-02-03T00:54:15;51.63;;;27.35;;
67902;SDS011;54708;43.612;1.568;2023-02-03T00:56:40;49.78;;;24.95;;
67902;SDS011;54708;43.612;1.568;2023-02-03T00:59:06;59.53;;;30.77;;
67902;SDS011;54708;43.612;1.568;2023-02-03T01:01:32;51.42;;;21.38;;
67902;SDS011;54708;43.612;1.568;2023-02-03T01:03:58;58.60;;;25.48;;
67902;SDS011;54708;43.612;1.568;2023-02-03T01:06:24;31.95;;;16.75;;
67902;SDS011;54708;43.612;1.568;2023-02-03T01:08:50;28.88;;;16.15;;
67902;SDS011;54708;43.612;1.568;2023-02-03T01:11:17;31.00;;;14.88;;
67902;SDS011;54708;43.612;1.568;2023-02-03T01:13:44;32.17;;;17.58;;
67902;SDS011;54708;43.612;1.568;2023-02-03T01:16:10;27.00;;;16.02;;
67902;SDS011;54708;43.612;1.568;2023-02-03T01:18:38;33.50;;;18.75;;
67902;SDS011;54708;43.612;1.568;2023-02-03T01:21:08;27.90;;;15.68;;
67902;SDS011;54708;43.612;1.568;2023-02-03T01:23:35;29.70;;;16.00;;
67902;SDS011;54708;43.612;1.568;2023-02-03T01:26:05;41.22;;;17.48;;
67902;SDS011;54708;43.612;1.568;2023-02-03T01:28:32;27.50;;;15.00;;
67902;SDS011;54708;43.612;1.568;2023-02-03T01:31:06;32.55;;;18.60;;
67902;SDS011;54708;43.612;1.568;2023-02-03T01:33:42;26.27;;;15.82;;
67902;SDS011;54708;43.612;1.568;2023-02-03T01:36:11;27.42;;;17.13;;
67902;SDS011;54708;43.612;1.568;2023-02-03T01:38:37;32.60;;;17.48;;
67902;SDS011;54708;43.612;1.568;2023-02-03T01:41:05;28.95;;;16.65;;
67902;SDS011;54708;43.612;1.568;2023-02-03T01:43:34;30.77;;;15.82;;
67902;SDS011;54708;43.612;1.568;2023-02-03T01:49:08;31.52;;;17.67;;
67902;SDS011;54708;43.612;1.568;2023-02-03T01:51:37;32.47;;;18.27;;
67902;SDS011;54708;43.612;1.568;2023-02-03T01:54:06;32.58;;;15.55;;
67902;SDS011;54708;43.612;1.568;2023-02-03T01:56:34;26.20;;;14.77;;
67902;SDS011;54708;43.612;1.568;2023-02-03T01:59:00;32.92;;;15.85;;
67902;SDS011;54708;43.612;1.568;2023-02-03T02:01:27;32.80;;;15.15;;
67902;SDS011;54708;43.612;1.568;2023-02-03T02:03:54;30.02;;;14.25;;
67902;SDS011;54708;43.612;1.568;2023-02-03T02:06:20;28.90;;;15.38;;
67902;SDS011;54708;43.612;1.568;2023-02-03T02:08:46;32.05;;;14.82;;
67902;SDS011;54708;43.612;1.568;2023-02-03T02:11:13;34.17;;;14.77;;
67902;SDS011;54708;43.612;1.568;2023-02-03T02:13:38;29.27;;;16.58;;
67902;SDS011;54708;43.612;1.568;2023-02-03T02:36:21;22.48;;;15.38;;
67902;SDS011;54708;43.612;1.568;2023-02-03T02:41:57;27.45;;;14.23;;
67902;SDS011;54708;43.612;1.568;2023-02-03T02:44:36;29.17;;;15.73;;
67902;SDS011;54708;43.612;1.568;2023-02-03T02:47:05;33.63;;;15.00;;
67902;SDS011;54708;43.612;1.568;2023-02-03T02:49:41;29.30;;;14.93;;
67902;SDS011;54708;43.612;1.568;2023-02-03T02:52:08;27.00;;;14.02;;
67902;SDS011;54708;43.612;1.568;2023-02-03T02:54:36;25.55;;;14.65;;
67902;SDS011;54708;43.612;1.568;2023-02-03T02:57:04;24.08;;;14.73;;
67902;SDS011;54708;43.612;1.568;2023-02-03T02:59:30;23.92;;;13.77;;
67902;SDS011;54708;43.612;1.568;2023-02-03T03:01:56;24.10;;;12.80;;
67902;SDS011;54708;43.612;1.568;2023-02-03T03:04:22;30.42;;;14.70;;
67902;SDS011;54708;43.612;1.568;2023-02-03T03:06:51;27.95;;;14.07;;
67902;SDS011;54708;43.612;1.568;2023-02-03T03:09:21;31.48;;;14.63;;
67902;SDS011;54708;43.612;1.568;2023-02-03T03:11:52;27.52;;;15.75;;
67902;SDS011;54708;43.612;1.568;2023-02-03T03:14:22;28.67;;;12.77;;
67902;SDS011;54708;43.612;1.568;2023-02-03T03:16:52;18.48;;;11.55;;
67902;SDS011;54708;43.612;1.568;2023-02-03T03:19:20;22.90;;;12.93;;
67902;SDS011;54708;43.612;1.568;2023-02-03T03:21:52;22.95;;;12.32;;
67902;SDS011;54708;43.612;1.568;2023-02-03T03:24:24;22.05;;;13.40;;
67902;SDS011;54708;43.612;1.568;2023-02-03T03:27:04;30.45;;;13.18;;
67902;SDS011;54708;43.612;1.568;2023-02-03T03:29:39;23.77;;;13.82;;
67902;SDS011;54708;43.612;1.568;2023-02-03T03:32:05;28.55;;;13.35;;
67902;SDS011;54708;43.612;1.568;2023-02-03T03:34:30;21.55;;;12.60;;
67902;SDS011;54708;43.612;1.568;2023-02-03T03:39:27;25.67;;;14.10;;
67902;SDS011;54708;43.612;1.568;2023-02-03T03:41:55;28.42;;;12.77;;
67902;SDS011;54708;43.612;1.568;2023-02-03T03:44:23;33.72;;;16.83;;
67902;SDS011;54708;43.612;1.568;2023-02-03T03:47:09;25.83;;;13.57;;
67902;SDS011;54708;43.612;1.568;2023-02-03T03:49:37;24.75;;;13.40;;
67902;SDS011;54708;43.612;1.568;2023-02-03T03:52:05;31.45;;;13.90;;
67902;SDS011;54708;43.612;1.568;2023-02-03T03:54:33;28.08;;;12.10;;
67902;SDS011;54708;43.612;1.568;2023-02-03T03:57:22;32.85;;;14.02;;
67902;SDS011;54708;43.612;1.568;2023-02-03T03:59:47;21.67;;;12.70;;
67902;SDS011;54708;43.612;1.568;2023-02-03T04:02:13;27.25;;;12.82;;
67902;SDS011;54708;43.612;1.568;2023-02-03T04:04:40;22.45;;;12.18;;
67902;SDS011;54708;43.612;1.568;2023-02-03T04:07:06;28.25;;;14.30;;
67902;SDS011;54708;43.612;1.568;2023-02-03T04:09:32;20.88;;;12.18;;
67902;SDS011;54708;43.612;1.568;2023-02-03T04:12:00;25.17;;;12.25;;
67902;SDS011;54708;43.612;1.568;2023-02-03T04:14:26;25.48;;;14.68;;
67902;SDS011;54708;43.612;1.568;2023-02-03T04:16:54;28.25;;;12.32;;
67902;SDS011;54708;43.612;1.568;2023-02-03T04:19:19;18.52;;;12.70;;
67902;SDS011;54708;43.612;1.568;2023-02-03T04:21:44;23.73;;;12.90;;
67902;SDS011;54708;43.612;1.568;2023-02-03T04:24:10;28.98;;;14.45;;
67902;SDS011;54708;43.612;1.568;2023-02-03T04:26:36;24.65;;;13.95;;
67902;SDS011;54708;43.612;1.568;2023-02-03T04:29:01;26.27;;;14.30;;
67902;SDS011;54708;43.612;1.568;2023-02-03T04:31:27;30.13;;;13.90;;
67902;SDS011;54708;43.612;1.568;2023-02-03T04:33:52;31.13;;;14.57;;
67902;SDS011;54708;43.612;1.568;2023-02-03T04:36:18;31.65;;;14.93;;
67902;SDS011;54708;43.612;1.568;2023-02-03T04:38:43;30.90;;;16.65;;
67902;SDS011;54708;43.612;1.568;2023-02-03T04:41:08;26.75;;;15.65;;
67902;SDS011;54708;43.612;1.568;2023-02-03T04:43:34;22.67;;;13.90;;
67902;SDS011;54708;43.612;1.568;2023-02-03T04:45:59;29.17;;;15.02;;
67902;SDS011;54708;43.612;1.568;2023-02-03T04:48:25;24.98;;;13.73;;
67902;SDS011;54708;43.612;1.568;2023-02-03T04:50:51;41.17;;;16.52;;
67902;SDS011;54708;43.612;1.568;2023-02-03T04:53:16;30.98;;;20.05;;
67902;SDS011;54708;43.612;1.568;2023-02-03T04:55:45;30.98;;;17.45;;
67902;SDS011;54708;43.612;1.568;2023-02-03T04:58:11;25.25;;;16.25;;
67902;SDS011;54708;43.612;1.568;2023-02-03T05:00:36;27.65;;;16.75;;
67902;SDS011;54708;43.612;1.568;2023-02-03T05:03:02;28.33;;;16.65;;
67902;SDS011;54708;43.612;1.568;2023-02-03T05:05:27;38.40;;;17.60;;
67902;SDS011;54708;43.612;1.568;2023-02-03T05:07:53;38.65;;;16.77;;
67902;SDS011;54708;43.612;1.568;2023-02-03T05:10:18;30.45;;;16.80;;
67902;SDS011;54708;43.612;1.568;2023-02-03T05:12:43;31.35;;;16.70;;
67902;SDS011;54708;43.612;1.568;2023-02-03T05:15:09;28.48;;;17.15;;
67902;SDS011;54708;43.612;1.568;2023-02-03T05:17:34;34.78;;;17.48;;
67902;SDS011;54708;43.612;1.568;2023-02-03T05:20:03;27.00;;;16.58;;
67902;SDS011;54708;43.612;1.568;2023-02-03T05:22:29;24.95;;;14.88;;
67902;SDS011;54708;43.612;1.568;2023-02-03T05:24:54;25.92;;;16.13;;
67902;SDS011;54708;43.612;1.568;2023-02-03T05:27:19;29.13;;;14.43;;
67902;SDS011;54708;43.612;1.568;2023-02-03T05:29:45;24.33;;;15.90;;
67902;SDS011;54708;43.612;1.568;2023-02-03T05:32:10;26.10;;;15.70;;
67902;SDS011;54708;43.612;1.568;2023-02-03T05:34:35;26.63;;;14.93;;
67902;SDS011;54708;43.612;1.568;2023-02-03T05:37:01;25.60;;;14.88;;
67902;SDS011;54708;43.612;1.568;2023-02-03T05:39:27;22.92;;;14.15;;
67902;SDS011;54708;43.612;1.568;2023-02-03T05:41:53;25.27;;;15.07;;
67902;SDS011;54708;43.612;1.568;2023-02-03T05:46:45;26.50;;;15.85;;
67902;SDS011;54708;43.612;1.568;2023-02-03T05:49:10;24.98;;;14.63;;
67902;SDS011;54708;43.612;1.568;2023-02-03T05:51:35;31.50;;;15.30;;
67902;SDS011;54708;43.612;1.568;2023-02-03T05:54:01;39.90;;;16.58;;
67902;SDS011;54708;43.612;1.568;2023-02-03T05:56:27;25.92;;;16.90;;
67902;SDS011;54708;43.612;1.568;2023-02-03T05:58:52;31.15;;;15.43;;
67902;SDS011;54708;43.612;1.568;2023-02-03T06:01:18;28.33;;;16.15;;
67902;SDS011;54708;43.612;1.568;2023-02-03T06:03:44;29.20;;;16.92;;
67902;SDS011;54708;43.612;1.568;2023-02-03T06:06:09;33.28;;;18.00;;
67902;SDS011;54708;43.612;1.568;2023-02-03T06:08:35;29.75;;;16.88;;
67902;SDS011;54708;43.612;1.568;2023-02-03T06:11:01;29.67;;;17.02;;
67902;SDS011;54708;43.612;1.568;2023-02-03T06:13:26;32.08;;;17.50;;
67902;SDS011;54708;43.612;1.568;2023-02-03T06:15:52;37.90;;;22.85;;
67902;SDS011;54708;43.612;1.568;2023-02-03T06:18:17;36.70;;;18.17;;
67902;SDS011;54708;43.612;1.568;2023-02-03T06:20:43;30.65;;;18.38;;
67902;SDS011;54708;43.612;1.568;2023-02-03T06:23:08;27.50;;;18.33;;
67902;SDS011;54708;43.612;1.568;2023-02-03T06:25:34;43.95;;;23.33;;
67902;SDS011;54708;43.612;1.568;2023-02-03T06:27:59;38.20;;;19.02;;
67902;SDS011;54708;43.612;1.568;2023-02-03T06:30:24;31.30;;;18.33;;
67902;SDS011;54708;43.612;1.568;2023-02-03T06:32:50;35.67;;;16.88;;
67902;SDS011;54708;43.612;1.568;2023-02-03T06:35:16;29.15;;;17.50;;
67902;SDS011;54708;43.612;1.568;2023-02-03T06:37:41;37.83;;;16.50;;
67902;SDS011;54708;43.612;1.568;2023-02-03T06:40:08;27.40;;;17.10;;
67902;SDS011;54708;43.612;1.568;2023-02-03T06:42:34;32.45;;;19.48;;
67902;SDS011;54708;43.612;1.568;2023-02-03T06:45:00;42.38;;;24.83;;
67902;SDS011;54708;43.612;1.568;2023-02-03T06:47:26;34.10;;;18.08;;
67902;SDS011;54708;43.612;1.568;2023-02-03T06:49:51;29.73;;;16.50;;
67902;SDS011;54708;43.612;1.568;2023-02-03T06:52:17;29.02;;;17.20;;
67902;SDS011;54708;43.612;1.568;2023-02-03T06:54:42;24.73;;;15.85;;
67902;SDS011;54708;43.612;1.568;2023-02-03T06:57:08;25.88;;;14.60;;
67902;SDS011;54708;43.612;1.568;2023-02-03T06:59:33;23.00;;;14.85;;
67902;SDS011;54708;43.612;1.568;2023-02-03T07:01:59;25.42;;;15.45;;
67902;SDS011;54708;43.612;1.568;2023-02-03T07:04:24;27.02;;;17.50;;
67902;SDS011;54708;43.612;1.568;2023-02-03T07:06:52;29.90;;;15.48;;
67902;SDS011;54708;43.612;1.568;2023-02-03T07:09:17;23.48;;;14.75;;
67902;SDS011;54708;43.612;1.568;2023-02-03T07:11:43;31.75;;;16.05;;
67902;SDS011;54708;43.612;1.568;2023-02-03T07:14:08;27.98;;;14.80;;
67902;SDS011;54708;43.612;1.568;2023-02-03T07:16:34;26.45;;;13.70;;
67902;SDS011;54708;43.612;1.568;2023-02-03T07:19:01;25.98;;;14.52;;
67902;SDS011;54708;43.612;1.568;2023-02-03T07:21:27;28.42;;;15.68;;
67902;SDS011;54708;43.612;1.568;2023-02-03T07:23:52;28.30;;;15.00;;
67902;SDS011;54708;43.612;1.568;2023-02-03T07:26:18;26.33;;;14.05;;
67902;SDS011;54708;43.612;1.568;2023-02-03T07:28:43;24.02;;;15.32;;
67902;SDS011;54708;43.612;1.568;2023-02-03T07:31:09;29.50;;;15.52;;
67902;SDS011;54708;43.612;1.568;2023-02-03T07:33:35;24.15;;;13.73;;
67902;SDS011;54708;43.612;1.568;2023-02-03T07:36:01;26.63;;;15.18;;
67902;SDS011;54708;43.612;1.568;2023-02-03T07:38:27;29.60;;;17.00;;
67902;SDS011;54708;43.612;1.568;2023-02-03T07:40:53;29.42;;;15.07;;
67902;SDS011;54708;43.612;1.568;2023-02-03T07:43:18;30.05;;;15.80;;
67902;SDS011;54708;43.612;1.568;2023-02-03T07:45:44;20.65;;;13.77;;
67902;SDS011;54708;43.612;1.568;2023-02-03T07:48:10;27.73;;;13.57;;
67902;SDS011;54708;43.612;1.568;2023-02-03T07:50:35;26.25;;;15.07;;
67902;SDS011;54708;43.612;1.568;2023-02-03T07:53:01;26.00;;;14.30;;
67902;SDS011;54708;43.612;1.568;2023-02-03T07:55:26;28.33;;;14.13;;
67902;SDS011;54708;43.612;1.568;2023-02-03T07:57:52;20.20;;;12.15;;
67902;SDS011;54708;43.612;1.568;2023-02-03T08:00:18;29.05;;;13.18;;
67902;SDS011;54708;43.612;1.568;2023-02-03T08:02:44;22.95;;;12.98;;
67902;SDS011;54708;43.612;1.568;2023-02-03T08:05:10;22.00;;;13.30;;
67902;SDS011;54708;43.612;1.568;2023-02-03T08:07:36;33.25;;;13.43;;
67902;SDS011;54708;43.612;1.568;2023-02-03T08:10:02;22.50;;;12.50;;
67902;SDS011;54708;43.612;1.568;2023-02-03T08:12:28;23.35;;;13.73;;
67902;SDS011;54708;43.612;1.568;2023-02-03T08:14:53;22.38;;;13.20;;
67902;SDS011;54708;43.612;1.568;2023-02-03T08:17:19;24.10;;;13.15;;
67902;SDS011;54708;43.612;1.568;2023-02-03T08:19:44;22.95;;;13.60;;
67902;SDS011;54708;43.612;1.568;2023-02-03T08:22:10;22.60;;;12.77;;
67902;SDS011;54708;43.612;1.568;2023-02-03T08:24:43;26.42;;;13.20;;
67902;SDS011;54708;43.612;1.568;2023-02-03T08:27:11;23.10;;;12.65;;
67902;SDS011;54708;43.612;1.568;2023-02-03T08:29:37;21.27;;;13.15;;
67902;SDS011;54708;43.612;1.568;2023-02-03T08:32:03;24.75;;;14.68;;
67902;SDS011;54708;43.612;1.568;2023-02-03T08:34:29;24.42;;;13.10;;
67902;SDS011;54708;43.612;1.568;2023-02-03T08:36:54;28.80;;;11.88;;
67902;SDS011;54708;43.612;1.568;2023-02-03T08:39:20;23.42;;;12.00;;
67902;SDS011;54708;43.612;1.568;2023-02-03T08:41:45;28.60;;;16.17;;
67902;SDS011;54708;43.612;1.568;2023-02-03T08:44:10;24.13;;;14.95;;
67902;SDS011;54708;43.612;1.568;2023-02-03T08:46:36;24.65;;;15.85;;
67902;SDS011;54708;43.612;1.568;2023-02-03T08:49:07;28.30;;;15.77;;
67902;SDS011;54708;43.612;1.568;2023-02-03T08:51:33;24.08;;;13.10;;
67902;SDS011;54708;43.612;1.568;2023-02-03T08:53:58;15.98;;;11.25;;
67902;SDS011;54708;43.612;1.568;2023-02-03T08:56:23;21.77;;;12.35;;
67902;SDS011;54708;43.612;1.568;2023-02-03T08:58:50;25.58;;;11.85;;
67902;SDS011;54708;43.612;1.568;2023-02-03T09:01:16;20.38;;;11.48;;
67902;SDS011;54708;43.612;1.568;2023-02-03T09:03:41;21.13;;;11.45;;
67902;SDS011;54708;43.612;1.568;2023-02-03T09:06:07;22.08;;;11.82;;
67902;SDS011;54708;43.612;1.568;2023-02-03T09:08:33;18.95;;;12.30;;
67902;SDS011;54708;43.612;1.568;2023-02-03T09:10:58;23.02;;;12.15;;
67902;SDS011;54708;43.612;1.568;2023-02-03T09:13:24;24.77;;;12.60;;
67902;SDS011;54708;43.612;1.568;2023-02-03T09:15:49;18.38;;;11.35;;
67902;SDS011;54708;43.612;1.568;2023-02-03T09:18:15;21.20;;;12.27;;
67902;SDS011;54708;43.612;1.568;2023-02-03T09:20:40;28.48;;;11.88;;
67902;SDS011;54708;43.612;1.568;2023-02-03T09:23:05;21.40;;;11.27;;
67902;SDS011;54708;43.612;1.568;2023-02-03T09:25:31;24.50;;;11.55;;
67902;SDS011;54708;43.612;1.568;2023-02-03T09:27:57;18.88;;;11.45;;
67902;SDS011;54708;43.612;1.568;2023-02-03T09:30:22;19.85;;;10.50;;
67902;SDS011;54708;43.612;1.568;2023-02-03T09:32:51;28.90;;;11.18;;
67902;SDS011;54708;43.612;1.568;2023-02-03T09:35:18;23.02;;;10.82;;
67902;SDS011;54708;43.612;1.568;2023-02-03T09:37:44;21.08;;;9.85;;
67902;SDS011;54708;43.612;1.568;2023-02-03T09:40:12;19.00;;;10.02;;
67902;SDS011;54708;43.612;1.568;2023-02-03T09:43:01;22.90;;;10.35;;
67902;SDS011;54708;43.612;1.568;2023-02-03T09:45:28;18.60;;;10.57;;
67902;SDS011;54708;43.612;1.568;2023-02-03T09:47:56;24.65;;;10.43;;
67902;SDS011;54708;43.612;1.568;2023-02-03T09:50:27;19.63;;;10.10;;
67902;SDS011;54708;43.612;1.568;2023-02-03T09:52:54;19.25;;;9.02;;
67902;SDS011;54708;43.612;1.568;2023-02-03T09:57:51;19.58;;;8.05;;
67902;SDS011;54708;43.612;1.568;2023-02-03T10:00:22;13.48;;;6.78;;
67902;SDS011;54708;43.612;1.568;2023-02-03T10:02:55;17.15;;;7.70;;
67902;SDS011;54708;43.612;1.568;2023-02-03T10:19:48;14.10;;;7.25;;
67902;SDS011;54708;43.612;1.568;2023-02-03T10:22:18;17.00;;;7.40;;
67902;SDS011;54708;43.612;1.568;2023-02-03T10:25:06;14.88;;;7.47;;
67902;SDS011;54708;43.612;1.568;2023-02-03T10:27:40;14.30;;;7.22;;
67902;SDS011;54708;43.612;1.568;2023-02-03T10:30:22;15.98;;;7.85;;
67902;SDS011;54708;43.612;1.568;2023-02-03T10:32:50;14.55;;;7.57;;
67902;SDS011;54708;43.612;1.568;2023-02-03T10:35:24;14.17;;;7.30;;
67902;SDS011;54708;43.612;1.568;2023-02-03T10:37:54;18.27;;;7.68;;
67902;SDS011;54708;43.612;1.568;2023-02-03T10:40:21;16.80;;;8.07;;
67902;SDS011;54708;43.612;1.568;2023-02-03T10:42:49;12.93;;;8.65;;
67902;SDS011;54708;43.612;1.568;2023-02-03T10:45:35;12.85;;;6.93;;
67902;SDS011;54708;43.612;1.568;2023-02-03T10:48:01;16.60;;;8.60;;
67902;SDS011;54708;43.612;1.568;2023-02-03T10:50:28;17.83;;;8.70;;
67902;SDS011;54708;43.612;1.568;2023-02-03T10:55:50;15.48;;;7.40;;
67902;SDS011;54708;43.612;1.568;2023-02-03T10:58:28;18.23;;;6.85;;
67902;SDS011;54708;43.612;1.568;2023-02-03T11:03:54;13.60;;;5.88;;
67902;SDS011;54708;43.612;1.568;2023-02-03T11:06:19;9.82;;;6.30;;
67902;SDS011;54708;43.612;1.568;2023-02-03T11:08:46;12.50;;;6.38;;
67902;SDS011;54708;43.612;1.568;2023-02-03T11:11:13;15.95;;;7.05;;
67902;SDS011;54708;43.612;1.568;2023-02-03T11:13:40;13.45;;;6.57;;
67902;SDS011;54708;43.612;1.568;2023-02-03T11:16:06;12.20;;;5.47;;
67902;SDS011;54708;43.612;1.568;2023-02-03T11:18:41;14.05;;;6.40;;
67902;SDS011;54708;43.612;1.568;2023-02-03T11:21:12;15.38;;;7.20;;
67902;SDS011;54708;43.612;1.568;2023-02-03T11:23:45;13.32;;;6.53;;
67902;SDS011;54708;43.612;1.568;2023-02-03T11:26:18;19.27;;;7.30;;
67902;SDS011;54708;43.612;1.568;2023-02-03T11:28:46;13.55;;;6.72;;
67902;SDS011;54708;43.612;1.568;2023-02-03T11:31:17;12.55;;;7.28;;
67902;SDS011;54708;43.612;1.568;2023-02-03T11:33:48;14.30;;;7.13;;
67902;SDS011;54708;43.612;1.568;2023-02-03T11:36:16;16.58;;;7.03;;
67902;SDS011;54708;43.612;1.568;2023-02-03T11:38:42;10.20;;;6.03;;
67902;SDS011;54708;43.612;1.568;2023-02-03T11:41:18;17.10;;;5.88;;
67902;SDS011;54708;43.612;1.568;2023-02-03T11:43:45;9.85;;;4.40;;
67902;SDS011;54708;43.612;1.568;2023-02-03T11:46:11;11.75;;;5.25;;
67902;SDS011;54708;43.612;1.568;2023-02-03T11:48:38;9.20;;;4.80;;
67902;SDS011;54708;43.612;1.568;2023-02-03T11:56:51;12.05;;;6.30;;
67902;SDS011;54708;43.612;1.568;2023-02-03T12:07:47;9.60;;;5.40;;
67902;SDS011;54708;43.612;1.568;2023-02-03T12:21:36;12.30;;;6.85;;
67902;SDS011;54708;43.612;1.568;2023-02-03T12:27:13;13.23;;;7.15;;
67902;SDS011;54708;43.612;1.568;2023-02-03T12:30:00;15.40;;;8.40;;
67902;SDS011;54708;43.612;1.568;2023-02-03T12:35:11;12.05;;;5.30;;
67902;SDS011;54708;43.612;1.568;2023-02-03T12:40:28;8.75;;;4.25;;
67902;SDS011;54708;43.612;1.568;2023-02-03T12:45:41;14.35;;;5.95;;
67902;SDS011;54708;43.612;1.568;2023-02-03T12:48:16;9.40;;;4.22;;
67902;SDS011;54708;43.612;1.568;2023-02-03T12:50:45;11.75;;;4.53;;
67902;SDS011;54708;43.612;1.568;2023-02-03T12:53:15;8.25;;;3.83;;
67902;SDS011;54708;43.612;1.568;2023-02-03T12:56:08;10.70;;;6.10;;
67902;SDS011;54708;43.612;1.568;2023-02-03T12:58:37;14.43;;;3.95;;
67902;SDS011;54708;43.612;1.568;2023-02-03T13:01:07;14.73;;;5.05;;
67902;SDS011;54708;43.612;1.568;2023-02-03T13:06:31;10.43;;;4.60;;
67902;SDS011;54708;43.612;1.568;2023-02-03T13:09:20;11.60;;;5.00;;
67902;SDS011;54708;43.612;1.568;2023-02-03T13:14:46;13.20;;;4.28;;
67902;SDS011;54708;43.612;1.568;2023-02-03T13:17:19;7.03;;;3.95;;
67902;SDS011;54708;43.612;1.568;2023-02-03T13:19:49;16.00;;;5.95;;
67902;SDS011;54708;43.612;1.568;2023-02-03T13:22:16;6.43;;;4.07;;
67902;SDS011;54708;43.612;1.568;2023-02-03T13:24:43;12.02;;;4.30;;
67902;SDS011;54708;43.612;1.568;2023-02-03T13:27:16;10.45;;;4.45;;
67902;SDS011;54708;43.612;1.568;2023-02-03T13:43:04;11.38;;;4.57;;
67902;SDS011;54708;43.612;1.568;2023-02-03T13:45:53;11.27;;;5.72;;
67902;SDS011;54708;43.612;1.568;2023-02-03T13:48:23;13.50;;;4.07;;
67902;SDS011;54708;43.612;1.568;2023-02-03T13:51:03;16.05;;;6.53;;
67902;SDS011;54708;43.612;1.568;2023-02-03T13:53:32;21.80;;;5.45;;
67902;SDS011;54708;43.612;1.568;2023-02-03T13:56:01;12.75;;;5.85;;
67902;SDS011;54708;43.612;1.568;2023-02-03T13:58:31;11.57;;;4.80;;
67902;SDS011;54708;43.612;1.568;2023-02-03T14:01:03;10.18;;;5.45;;
67902;SDS011;54708;43.612;1.568;2023-02-03T14:05:58;14.68;;;6.03;;
67902;SDS011;54708;43.612;1.568;2023-02-03T14:13:59;12.02;;;6.10;;
67902;SDS011;54708;43.612;1.568;2023-02-03T14:16:46;10.23;;;5.63;;
67902;SDS011;54708;43.612;1.568;2023-02-03T14:21:50;13.45;;;5.65;;
67902;SDS011;54708;43.612;1.568;2023-02-03T14:24:18;8.43;;;5.38;;
67902;SDS011;54708;43.612;1.568;2023-02-03T14:26:53;15.13;;;6.10;;
67902;SDS011;54708;43.612;1.568;2023-02-03T14:29:37;13.45;;;5.63;;
67902;SDS011;54708;43.612;1.568;2023-02-03T14:32:03;14.10;;;5.13;;
67902;SDS011;54708;43.612;1.568;2023-02-03T14:34:31;10.85;;;5.78;;
67902;SDS011;54708;43.612;1.568;2023-02-03T14:56:22;13.05;;;5.57;;
67902;SDS011;54708;43.612;1.568;2023-02-03T14:58:52;10.15;;;4.78;;
67902;SDS011;54708;43.612;1.568;2023-02-03T15:04:19;19.65;;;5.85;;
67902;SDS011;54708;43.612;1.568;2023-02-03T15:06:46;10.20;;;5.63;;
67902;SDS011;54708;43.612;1.568;2023-02-03T15:12:17;13.25;;;5.32;;
67902;SDS011;54708;43.612;1.568;2023-02-03T15:14:43;7.35;;;4.57;;
67902;SDS011;54708;43.612;1.568;2023-02-03T15:17:10;9.05;;;4.40;;
67902;SDS011;54708;43.612;1.568;2023-02-03T15:19:39;11.77;;;4.57;;
67902;SDS011;54708;43.612;1.568;2023-02-03T15:24:57;10.50;;;4.72;;
67902;SDS011;54708;43.612;1.568;2023-02-03T15:27:24;9.52;;;4.93;;
67902;SDS011;54708;43.612;1.568;2023-02-03T15:29:51;9.68;;;5.25;;
67902;SDS011;54708;43.612;1.568;2023-02-03T15:32:24;10.73;;;4.70;;
67902;SDS011;54708;43.612;1.568;2023-02-03T15:34:53;7.65;;;4.63;;
67902;SDS011;54708;43.612;1.568;2023-02-03T15:40:21;10.55;;;4.15;;
67902;SDS011;54708;43.612;1.568;2023-02-03T15:42:58;10.10;;;5.40;;
67902;SDS011;54708;43.612;1.568;2023-02-03T15:45:36;9.95;;;5.38;;
67902;SDS011;54708;43.612;1.568;2023-02-03T15:48:14;8.88;;;4.75;;
67902;SDS011;54708;43.612;1.568;2023-02-03T15:53:09;10.07;;;4.20;;
67902;SDS011;54708;43.612;1.568;2023-02-03T15:55:42;9.48;;;4.97;;
67902;SDS011;54708;43.612;1.568;2023-02-03T15:58:22;8.07;;;4.20;;
67902;SDS011;54708;43.612;1.568;2023-02-03T16:00:51;11.75;;;4.53;;
67902;SDS011;54708;43.612;1.568;2023-02-03T16:03:19;9.55;;;4.45;;
67902;SDS011;54708;43.612;1.568;2023-02-03T16:05:46;7.78;;;4.40;;
67902;SDS011;54708;43.612;1.568;2023-02-03T16:11:00;8.20;;;5.03;;
67902;SDS011;54708;43.612;1.568;2023-02-03T16:13:26;9.73;;;4.57;;
67902;SDS011;54708;43.612;1.568;2023-02-03T16:15:58;12.93;;;6.10;;
67902;SDS011;54708;43.612;1.568;2023-02-03T16:18:29;9.00;;;3.70;;
67902;SDS011;54708;43.612;1.568;2023-02-03T16:20:57;7.45;;;3.88;;
67902;SDS011;54708;43.612;1.568;2023-02-03T16:23:23;8.43;;;4.00;;
67902;SDS011;54708;43.612;1.568;2023-02-03T16:26:01;10.43;;;4.22;;
67902;SDS011;54708;43.612;1.568;2023-02-03T16:28:29;13.77;;;5.32;;
67902;SDS011;54708;43.612;1.568;2023-02-03T16:34:01;12.88;;;4.78;;
67902;SDS011;54708;43.612;1.568;2023-02-03T16:36:49;12.43;;;5.65;;
67902;SDS011;54708;43.612;1.568;2023-02-03T16:39:33;10.52;;;4.38;;
67902;SDS011;54708;43.612;1.568;2023-02-03T16:42:18;12.57;;;4.93;;
67902;SDS011;54708;43.612;1.568;2023-02-03T16:45:04;6.20;;;4.47;;
67902;SDS011;54708;43.612;1.568;2023-02-03T16:47:55;8.15;;;4.50;;
67902;SDS011;54708;43.612;1.568;2023-02-03T16:50:39;7.90;;;3.67;;
67902;SDS011;54708;43.612;1.568;2023-02-03T16:53:19;9.73;;;5.50;;
67902;SDS011;54708;43.612;1.568;2023-02-03T16:55:46;13.18;;;4.97;;
67902;SDS011;54708;43.612;1.568;2023-02-03T16:58:12;10.40;;;5.32;;
67902;SDS011;54708;43.612;1.568;2023-02-03T17:00:38;13.00;;;4.55;;
67902;SDS011;54708;43.612;1.568;2023-02-03T17:03:06;10.00;;;5.15;;
67902;SDS011;54708;43.612;1.568;2023-02-03T17:05:35;10.27;;;5.38;;
67902;SDS011;54708;43.612;1.568;2023-02-03T17:08:04;10.80;;;5.93;;
67902;SDS011;54708;43.612;1.568;2023-02-03T17:10:31;16.67;;;5.82;;
67902;SDS011;54708;43.612;1.568;2023-02-03T17:12:58;15.27;;;8.20;;
67902;SDS011;54708;43.612;1.568;2023-02-03T17:15:23;14.80;;;9.20;;